Time;durP1;ratioP1;P1;durP2;ratioP2;P2;SDS_P1;SDS_P2;PMS_P1;PMS_P2;Temp;Humidity;BMP_temperature;BMP_pressure;BME280_temperature;BME280_humidity;BME280_pressure;Samples;Min_cycle;Max_cycle;Signal;HPM_P1;HPM_P2
2021/09/01 07:18:20;;;;;;;16.58;12.80;;;;;;;;;;6241346;22;20043;-82
2021/09/01 07:35:39;;;;;;;13.98;11.82;;;;;;;;;;6301011;22;20061;-82
2021/09/01 07:41:19;;;;;;;16.15;12.75;;;;;;;;;;6279842;22;20017;-83
2021/09/01 07:43:48;;;;;;;17.27;12.63;;;;;;;;;;6284170;22;20012;-82
2021/09/01 07:51:52;;;;;;;13.95;12.07;;;;;;;;;;6225092;23;20082;-82
2021/09/01 07:54:21;;;;;;;16.50;13.15;;;;;;;;;;6151539;23;20006;-83
2021/09/01 07:57:11;;;;;;;14.57;11.95;;;;;;;;;;6147396;23;20005;-83
2021/09/01 08:00:17;;;;;;;13.25;11.85;;;;;;;;;;6162514;23;20013;-82
2021/09/01 08:02:51;;;;;;;14.15;11.82;;;;;;;;;;6089807;23;20031;-83
2021/09/01 08:05:26;;;;;;;18.55;12.60;;;;;;;;;;6081217;23;20007;-82
2021/09/01 08:07:51;;;;;;;17.58;12.55;;;;;;;;;;6085949;23;20026;-83
2021/09/01 08:10:36;;;;;;;16.55;12.70;;;;;;;;;;6035106;23;19995;-83
2021/09/01 08:13:05;;;;;;;13.50;11.90;;;;;;;;;;6082917;23;19998;-82
2021/09/01 08:15:31;;;;;;;14.65;11.80;;;;;;;;;;6080088;23;19999;-82
2021/09/01 08:17:58;;;;;;;15.45;12.73;;;;;;;;;;6051722;23;20030;-81
2021/09/01 08:20:25;;;;;;;14.27;12.45;;;;;;;;;;6055843;23;20007;-82
2021/09/01 08:22:52;;;;;;;16.20;12.30;;;;;;;;;;6033252;23;20015;-83
2021/09/01 08:25:17;;;;;;;17.77;11.95;;;;;;;;;;6054935;23;20003;-82
2021/09/01 08:28:22;;;;;;;14.55;12.57;;;;;;;;;;6057503;23;20003;-82
2021/09/01 08:30:56;;;;;;;14.13;11.48;;;;;;;;;;6085155;23;20003;-82
2021/09/01 08:33:22;;;;;;;12.45;11.15;;;;;;;;;;6057470;23;20087;-82
2021/09/01 08:35:52;;;;;;;17.60;12.15;;;;;;;;;;6083755;23;19998;-83
2021/09/01 08:38:22;;;;;;;16.25;12.25;;;;;;;;;;6052238;23;20038;-82
2021/09/01 08:41:02;;;;;;;14.68;11.55;;;;;;;;;;6079319;23;20038;-82
2021/09/01 08:43:28;;;;;;;11.63;10.43;;;;;;;;;;6063791;23;20014;-82
2021/09/01 08:45:53;;;;;;;15.02;10.52;;;;;;;;;;6111449;23;20046;-82
2021/09/01 08:48:23;;;;;;;12.35;10.50;;;;;;;;;;6109344;23;20022;-81
2021/09/01 08:54:09;;;;;;;13.25;10.18;;;;;;;;;;6227823;23;20019;-82
2021/09/01 08:56:37;;;;;;;13.52;10.63;;;;;;;;;;6232082;23;20013;-82
2021/09/01 08:59:21;;;;;;;12.88;10.05;;;;;;;;;;6229749;23;20016;-82
2021/09/01 09:02:00;;;;;;;13.48;10.30;;;;;;;;;;6212754;23;20035;-82
2021/09/01 09:04:38;;;;;;;12.75;10.00;;;;;;;;;;6233880;23;20000;-83
2021/09/01 09:07:07;;;;;;;15.10;10.07;;;;;;;;;;6221151;23;20032;-82
2021/09/01 09:09:42;;;;;;;12.20;10.05;;;;;;;;;;6205166;23;20034;-82
2021/09/01 09:12:09;;;;;;;12.02;9.70;;;;;;;;;;6203437;23;19997;-82
2021/09/01 09:14:41;;;;;;;13.60;10.60;;;;;;;;;;6226231;23;20020;-82
2021/09/01 09:17:19;;;;;;;12.07;10.05;;;;;;;;;;6233719;23;19996;-82
2021/09/01 09:20:06;;;;;;;15.02;11.63;;;;;;;;;;6198800;23;20043;-81
2021/09/01 09:22:36;;;;;;;11.77;10.45;;;;;;;;;;6225588;23;20009;-81
2021/09/01 09:25:11;;;;;;;17.25;10.77;;;;;;;;;;6201006;23;20008;-81
2021/09/01 09:27:43;;;;;;;14.15;10.68;;;;;;;;;;6222260;23;20003;-81
2021/09/01 09:30:28;;;;;;;12.80;10.23;;;;;;;;;;6222903;23;20000;-81
2021/09/01 09:33:08;;;;;;;12.55;10.73;;;;;;;;;;6225311;23;20076;-82
2021/09/01 09:36:02;;;;;;;13.05;9.10;;;;;;;;;;6197085;23;20004;-83
2021/09/01 09:38:32;;;;;;;13.40;9.82;;;;;;;;;;6200276;23;20008;-83
2021/09/01 09:41:00;;;;;;;12.82;10.23;;;;;;;;;;6230440;23;20015;-82
2021/09/01 09:43:27;;;;;;;13.60;10.05;;;;;;;;;;6206700;23;19991;-82
2021/09/01 09:46:07;;;;;;;14.95;9.35;;;;;;;;;;6233617;23;20001;-82
2021/09/01 09:48:37;;;;;;;11.15;8.02;;;;;;;;;;6211283;23;20027;-83
2021/09/01 09:51:13;;;;;;;11.88;8.50;;;;;;;;;;6160359;23;20024;-83
2021/09/01 09:54:00;;;;;;;11.02;8.75;;;;;;;;;;6210611;23;20059;-84
2021/09/01 09:56:29;;;;;;;8.68;7.78;;;;;;;;;;6229408;23;20140;-82
2021/09/01 09:58:57;;;;;;;7.88;7.03;;;;;;;;;;6230094;23;19997;-83
2021/09/01 10:01:26;;;;;;;9.38;6.90;;;;;;;;;;6233057;23;20012;-83
2021/09/01 10:03:54;;;;;;;10.93;7.32;;;;;;;;;;6204994;23;20000;-83
2021/09/01 10:06:20;;;;;;;9.90;7.57;;;;;;;;;;6206452;23;20091;-82
2021/09/01 10:08:55;;;;;;;8.45;6.93;;;;;;;;;;6228065;23;20418;-82
2021/09/01 10:11:22;;;;;;;7.68;6.47;;;;;;;;;;6175937;23;20005;-81
2021/09/01 10:13:52;;;;;;;7.28;6.50;;;;;;;;;;6227858;23;20060;-82
2021/09/01 10:16:36;;;;;;;8.57;6.47;;;;;;;;;;6231842;23;20015;-83
2021/09/01 10:19:15;;;;;;;9.82;7.32;;;;;;;;;;6229876;23;20047;-82
2021/09/01 10:22:09;;;;;;;8.55;6.97;;;;;;;;;;6206423;23;20039;-83
2021/09/01 10:24:45;;;;;;;8.32;6.85;;;;;;;;;;6232289;23;20027;-82
2021/09/01 10:27:23;;;;;;;9.43;6.72;;;;;;;;;;6228597;23;20001;-82
2021/09/01 10:30:09;;;;;;;8.55;6.20;;;;;;;;;;6232615;23;20000;-82
2021/09/01 10:32:53;;;;;;;7.38;6.63;;;;;;;;;;6229681;23;20034;-82
2021/09/01 10:35:30;;;;;;;8.80;6.80;;;;;;;;;;6201023;23;20011;-82
2021/09/01 10:44:47;;;;;;;8.13;6.55;;;;;;;;;;6272454;22;20087;-84
2021/09/01 10:47:20;;;;;;;7.35;6.43;;;;;;;;;;6118332;23;19994;-83
2021/09/01 10:50:33;;;;;;;9.30;6.35;;;;;;;;;;6108414;23;20085;-83
2021/09/01 10:53:44;;;;;;;7.68;6.80;;;;;;;;;;6093286;23;19999;-84
2021/09/01 10:56:52;;;;;;;7.25;6.53;;;;;;;;;;6070700;23;20006;-84
2021/09/01 10:59:41;;;;;;;6.95;6.20;;;;;;;;;;6090494;23;20066;-83
2021/09/01 11:03:09;;;;;;;9.25;6.22;;;;;;;;;;6024907;23;20014;-84
2021/09/01 11:06:32;;;;;;;6.47;5.88;;;;;;;;;;6089181;23;19993;-85
2021/09/01 11:09:19;;;;;;;7.25;5.80;;;;;;;;;;6093125;23;20063;-83
2021/09/01 11:15:09;;;;;;;8.15;6.05;;;;;;;;;;6088620;23;20017;-83
2021/09/01 11:21:21;;;;;;;7.15;5.72;;;;;;;;;;6093240;23;20064;-83
2021/09/01 11:24:16;;;;;;;6.63;5.28;;;;;;;;;;6224332;23;20004;-82
2021/09/01 12:03:58;;;;;;;10.57;5.70;;;;;;;;;;6243969;22;20012;-85
2021/09/01 14:14:18;;;;;;;4.70;3.70;;;;;;;;;;6298542;22;20071;-87
2021/09/01 14:20:07;;;;;;;9.60;4.18;;;;;;;;;;6290558;22;20037;-87
2021/09/01 14:22:33;;;;;;;5.18;4.32;;;;;;;;;;6251667;22;20000;-87
2021/09/01 14:24:59;;;;;;;5.78;4.00;;;;;;;;;;6250194;22;20026;-86
2021/09/01 14:27:24;;;;;;;6.35;3.97;;;;;;;;;;6249854;22;20074;-89
2021/09/01 14:29:50;;;;;;;5.68;4.03;;;;;;;;;;6250051;22;20329;-88
2021/09/01 14:32:15;;;;;;;5.07;3.72;;;;;;;;;;6249375;22;19999;-88
2021/09/01 14:34:41;;;;;;;4.82;3.80;;;;;;;;;;6249156;22;20054;-87
2021/09/01 14:37:06;;;;;;;4.65;3.72;;;;;;;;;;6249373;22;20034;-89
2021/09/01 14:39:32;;;;;;;6.30;4.80;;;;;;;;;;6276179;22;20421;-89
2021/09/01 14:41:57;;;;;;;8.35;4.50;;;;;;;;;;6249229;22;20010;-89
2021/09/01 14:44:23;;;;;;;5.32;4.05;;;;;;;;;;6249228;22;20007;-89
2021/09/01 14:46:48;;;;;;;6.10;4.18;;;;;;;;;;6249197;22;19999;-88
2021/09/01 14:49:14;;;;;;;6.40;4.13;;;;;;;;;;6248682;22;19999;-89
2021/09/01 14:51:39;;;;;;;4.47;3.60;;;;;;;;;;6249072;22;20303;-89
2021/09/01 14:54:04;;;;;;;9.05;3.88;;;;;;;;;;6276194;22;20346;-89
2021/09/01 14:56:30;;;;;;;5.75;3.63;;;;;;;;;;6249013;22;20082;-88
2021/09/01 14:58:56;;;;;;;4.43;3.72;;;;;;;;;;6248593;22;20000;-87
2021/09/01 15:01:21;;;;;;;6.00;4.00;;;;;;;;;;6275348;22;20057;-88
2021/09/01 15:03:47;;;;;;;5.15;3.72;;;;;;;;;;6248586;22;20118;-88
2021/09/01 15:06:12;;;;;;;4.10;3.70;;;;;;;;;;6248239;22;20106;-87
2021/09/01 15:08:41;;;;;;;5.35;3.60;;;;;;;;;;6248863;22;20029;-88
2021/09/01 15:11:11;;;;;;;4.93;3.47;;;;;;;;;;6275746;22;20007;-87
2021/09/01 15:13:37;;;;;;;5.38;3.63;;;;;;;;;;6248787;22;20083;-88
2021/09/01 15:16:03;;;;;;;5.10;3.38;;;;;;;;;;6248786;22;20050;-88
2021/09/01 15:18:29;;;;;;;8.73;4.03;;;;;;;;;;6275264;22;19995;-87
2021/09/01 15:20:54;;;;;;;5.55;3.30;;;;;;;;;;6275871;22;20007;-87
2021/09/01 15:23:20;;;;;;;6.13;3.50;;;;;;;;;;6248352;22;20002;-87
2021/09/01 15:25:45;;;;;;;4.00;3.60;;;;;;;;;;6248659;22;20122;-88
2021/09/01 15:28:12;;;;;;;3.90;3.50;;;;;;;;;;6275251;22;19995;-87
2021/09/01 15:30:37;;;;;;;4.22;3.83;;;;;;;;;;6275980;22;20021;-86
2021/09/01 15:33:04;;;;;;;4.63;3.40;;;;;;;;;;6275092;22;19992;-87
2021/09/01 15:35:29;;;;;;;4.75;3.90;;;;;;;;;;6248450;22;20500;-86
2021/09/01 15:37:55;;;;;;;3.70;3.40;;;;;;;;;;6248619;22;20000;-88
2021/09/01 15:40:21;;;;;;;4.82;3.88;;;;;;;;;;6275440;22;20074;-88
2021/09/01 15:42:48;;;;;;;5.75;4.15;;;;;;;;;;6248418;22;19995;-89
2021/09/01 15:45:16;;;;;;;6.63;3.33;;;;;;;;;;6275082;22;20491;-88
2021/09/01 15:47:54;;;;;;;7.13;3.60;;;;;;;;;;6248128;22;20326;-89
2021/09/01 15:50:21;;;;;;;7.32;3.60;;;;;;;;;;6275007;22;20074;-88
2021/09/01 15:52:47;;;;;;;5.40;3.60;;;;;;;;;;6275753;22;19992;-88
2021/09/01 15:55:14;;;;;;;6.00;3.58;;;;;;;;;;6248241;22;20002;-88
2021/09/01 15:57:40;;;;;;;4.65;3.50;;;;;;;;;;6275539;22;20066;-87
2021/09/01 16:00:07;;;;;;;12.70;4.00;;;;;;;;;;6274891;22;20073;-88
2021/09/01 16:02:34;;;;;;;6.10;3.85;;;;;;;;;;6248481;22;20353;-87
2021/09/01 16:05:02;;;;;;;5.22;3.33;;;;;;;;;;6248466;22;20022;-87
2021/09/01 16:07:28;;;;;;;8.45;3.92;;;;;;;;;;6247875;22;20037;-87
2021/09/01 16:09:53;;;;;;;6.50;3.50;;;;;;;;;;6274935;22;20069;-88
2021/09/01 16:12:21;;;;;;;5.32;3.58;;;;;;;;;;6248255;22;20049;-87
2021/09/01 16:14:59;;;;;;;5.28;3.80;;;;;;;;;;6275364;22;20006;-88
2021/09/01 16:17:29;;;;;;;4.30;3.50;;;;;;;;;;6249092;22;20373;-88
2021/09/01 16:20:06;;;;;;;;;;;;;;;;;;6251033;22;20000;-87
2021/09/01 16:22:51;;;;;;;4.35;3.30;;;;;;;;;;6250209;22;19907;-88
2021/09/01 16:25:16;;;;;;;3.58;3.28;;;;;;;;;;6277771;22;20045;-87
2021/09/01 16:27:44;;;;;;;6.28;3.45;;;;;;;;;;6250526;22;20421;-87
2021/09/01 16:30:11;;;;;;;3.72;3.42;;;;;;;;;;6277169;22;20042;-88
2021/09/01 16:32:37;;;;;;;6.93;3.28;;;;;;;;;;6250305;22;20037;-87
2021/09/01 16:35:05;;;;;;;4.00;3.30;;;;;;;;;;6277406;22;19999;-88
2021/09/01 16:37:41;;;;;;;4.07;3.67;;;;;;;;;;6277750;22;20062;-87
2021/09/01 16:40:08;;;;;;;5.03;3.30;;;;;;;;;;6277491;22;20003;-87
2021/09/01 16:42:35;;;;;;;4.55;3.35;;;;;;;;;;6250242;22;20004;-87
2021/09/01 16:45:01;;;;;;;8.10;3.78;;;;;;;;;;6276918;22;20003;-87
2021/09/01 16:47:28;;;;;;;3.67;3.38;;;;;;;;;;6249557;22;20003;-87
2021/09/01 16:49:53;;;;;;;4.95;3.40;;;;;;;;;;6250166;22;20000;-87
2021/09/01 16:52:20;;;;;;;4.40;3.47;;;;;;;;;;6250265;22;20102;-87
2021/09/01 16:54:52;;;;;;;5.95;3.78;;;;;;;;;;6277334;22;19996;-87
2021/09/01 16:57:40;;;;;;;4.10;3.25;;;;;;;;;;6249919;22;20004;-88
2021/09/01 17:00:06;;;;;;;6.13;3.75;;;;;;;;;;6249228;22;19992;-88
2021/09/01 17:02:37;;;;;;;6.57;3.63;;;;;;;;;;6277103;22;20018;-87
2021/09/01 17:05:06;;;;;;;3.92;3.50;;;;;;;;;;6277115;22;20010;-87
2021/09/01 17:07:33;;;;;;;5.85;3.33;;;;;;;;;;6250310;22;20038;-87
2021/09/01 17:10:00;;;;;;;7.68;3.95;;;;;;;;;;6249650;22;20062;-87
2021/09/01 17:12:25;;;;;;;5.90;3.83;;;;;;;;;;6250005;22;20318;-88
2021/09/01 17:14:51;;;;;;;7.20;3.42;;;;;;;;;;6249936;22;20023;-88
2021/09/01 17:17:17;;;;;;;5.78;4.20;;;;;;;;;;6249929;22;20051;-87
2021/09/01 17:19:43;;;;;;;5.45;3.38;;;;;;;;;;6250068;22;20010;-88
2021/09/01 17:22:08;;;;;;;4.30;3.90;;;;;;;;;;6250249;22;20000;-87
2021/09/01 17:24:35;;;;;;;6.38;4.10;;;;;;;;;;6276963;22;20089;-88
2021/09/01 17:27:03;;;;;;;8.27;4.20;;;;;;;;;;6277223;22;20003;-88
2021/09/01 17:29:44;;;;;;;5.47;4.00;;;;;;;;;;6249788;22;20012;-88
2021/09/01 17:32:14;;;;;;;9.40;3.80;;;;;;;;;;6250336;22;20401;-89
2021/09/01 17:34:43;;;;;;;7.37;5.17;;;;;;;;;;6276910;22;20023;-89
2021/09/01 17:37:11;;;;;;;9.63;5.18;;;;;;;;;;6250135;22;20425;-89
2021/09/01 17:39:38;;;;;;;10.18;5.63;;;;;;;;;;6250169;22;20003;-89
2021/09/01 17:42:04;;;;;;;7.15;4.95;;;;;;;;;;6249653;22;20015;-89
2021/09/01 17:44:31;;;;;;;7.97;5.43;;;;;;;;;;6275485;22;19999;-90
2021/09/01 17:46:58;;;;;;;15.77;9.10;;;;;;;;;;6248720;22;20307;-88
2021/09/01 17:49:25;;;;;;;10.75;6.63;;;;;;;;;;6248704;22;20000;-89
2021/09/01 17:51:51;;;;;;;11.48;4.78;;;;;;;;;;6250049;22;20027;-90
2021/09/01 17:54:19;;;;;;;6.13;4.82;;;;;;;;;;6249982;22;20434;-89
2021/09/01 17:56:46;;;;;;;8.02;4.60;;;;;;;;;;6249383;22;20016;-90
2021/09/01 17:59:11;;;;;;;34.38;18.75;;;;;;;;;;6277204;22;19996;-89
2021/09/01 18:01:37;;;;;;;9.35;6.35;;;;;;;;;;6276692;22;20033;-90
2021/09/01 18:04:03;;;;;;;19.23;9.63;;;;;;;;;;6249404;22;20003;-89
2021/09/01 18:06:28;;;;;;;42.25;17.88;;;;;;;;;;6247754;22;20038;-88
2021/09/01 18:08:54;;;;;;;22.35;13.35;;;;;;;;;;6248783;22;20061;-88
